createdAt,value
2017-09-20T00:01:48.100Z,69.40
2017-09-20T00:04:15.596Z,74.63
2017-09-20T00:06:43.118Z,79.63
2017-09-20T00:09:10.638Z,77.07
2017-09-20T00:11:38.910Z,81.03
2017-09-20T00:14:07.185Z,76.77
2017-09-20T00:16:35.493Z,73.60
2017-09-20T00:19:03.005Z,85.70
2017-09-20T00:21:30.518Z,94.87
2017-09-20T00:23:58.058Z,94.63
2017-09-20T00:26:25.559Z,96.57
2017-09-20T00:28:53.078Z,93.00
2017-09-20T00:31:20.630Z,98.93
2017-09-20T00:33:48.164Z,93.40
2017-09-20T00:36:15.690Z,104.53
2017-09-20T00:38:43.231Z,89.63
2017-09-20T00:41:10.788Z,96.87
2017-09-20T00:43:38.286Z,97.90
2017-09-20T00:46:05.811Z,98.77
2017-09-20T00:48:33.316Z,101.73
2017-09-20T00:51:00.837Z,107.40
2017-09-20T00:53:28.355Z,107.43
2017-09-20T00:55:55.910Z,102.97
2017-09-20T00:58:23.415Z,105.37
2017-09-20T01:00:50.923Z,102.77
2017-09-20T01:03:19.224Z,104.53
2017-09-20T01:05:46.740Z,105.97
2017-09-20T01:08:14.242Z,116.17
2017-09-20T01:10:41.809Z,114.60
2017-09-20T01:13:09.325Z,112.90
2017-09-20T01:15:37.590Z,117.43
2017-09-20T01:18:05.248Z,122.93
2017-09-20T01:20:44.609Z,116.70
2017-09-20T01:23:21.837Z,114.00
2017-09-20T01:25:49.343Z,119.33
2017-09-20T01:28:16.851Z,126.20
2017-09-20T01:30:44.506Z,127.77
2017-09-20T01:33:12.006Z,124.67
2017-09-20T01:35:39.620Z,125.93
2017-09-20T01:38:07.146Z,129.33
2017-09-20T01:40:35.457Z,127.77
2017-09-20T01:43:02.977Z,124.93
2017-09-20T01:45:31.266Z,127.53
2017-09-20T01:47:58.787Z,124.10
2017-09-20T01:50:26.333Z,138.77
2017-09-20T01:52:53.839Z,120.97
2017-09-20T01:55:21.353Z,131.23
2017-09-20T01:57:48.901Z,127.87
2017-09-20T02:00:16.431Z,128.10
2017-09-20T02:02:43.936Z,131.53
2017-09-20T02:05:11.554Z,136.73
2017-09-20T02:07:39.054Z,138.13
2017-09-20T02:10:06.577Z,138.03
2017-09-20T02:12:34.107Z,123.60
2017-09-20T02:15:01.610Z,137.23
2017-09-20T02:17:29.115Z,146.27
2017-09-20T02:19:57.425Z,133.50
2017-09-20T02:22:24.939Z,129.23
2017-09-20T02:24:53.225Z,127.97
2017-09-20T02:27:21.519Z,138.20
2017-09-20T02:29:49.093Z,119.50
2017-09-20T02:32:16.621Z,136.67
2017-09-20T02:34:44.916Z,139.80
2017-09-20T02:37:12.418Z,137.47
2017-09-20T02:39:39.936Z,124.00
2017-09-20T02:42:07.465Z,137.47
2017-09-20T02:44:35.743Z,129.83
2017-09-20T02:47:04.012Z,132.60
2017-09-20T02:49:32.333Z,137.97
2017-09-20T02:51:59.851Z,116.03
2017-09-20T02:54:28.137Z,118.77
2017-09-20T02:56:56.430Z,127.50
2017-09-20T02:59:23.930Z,127.87
2017-09-20T03:01:51.457Z,132.87
2017-09-20T03:04:19.001Z,132.20
2017-09-20T03:06:46.511Z,124.33
2017-09-20T03:09:14.010Z,118.37
2017-09-20T03:11:41.601Z,126.53
2017-09-20T03:14:09.354Z,127.87
2017-09-20T03:16:36.855Z,125.63
2017-09-20T03:19:04.473Z,134.40
2017-09-20T03:21:31.998Z,129.93
2017-09-20T03:24:00.289Z,122.20
2017-09-20T03:26:27.820Z,136.57
2017-09-20T03:28:56.102Z,130.33
2017-09-20T03:31:24.394Z,135.43
2017-09-20T03:33:52.801Z,131.93
2017-09-20T03:36:20.298Z,128.50
2017-09-20T03:38:47.812Z,128.10
2017-09-20T03:41:15.344Z,130.43
2017-09-20T03:43:43.633Z,134.00
2017-09-20T03:46:11.157Z,129.03
2017-09-20T03:48:38.709Z,138.67
2017-09-20T03:51:06.215Z,125.60
2017-09-20T03:53:33.785Z,131.17
2017-09-20T03:56:01.340Z,142.07
2017-09-20T03:58:28.843Z,122.97
2017-09-20T04:00:56.351Z,138.30
2017-09-20T04:03:24.022Z,140.73
2017-09-20T04:05:51.532Z,137.67
2017-09-20T04:08:19.139Z,141.60
2017-09-20T04:10:46.685Z,137.07
2017-09-20T04:13:14.257Z,136.77
2017-09-20T04:15:41.783Z,139.30
2017-09-20T04:18:10.089Z,147.13
2017-09-20T04:20:37.586Z,154.23
2017-09-20T04:23:05.110Z,142.27
2017-09-20T04:25:32.666Z,140.47
2017-09-20T04:28:00.172Z,136.27
2017-09-20T04:30:27.795Z,147.30
2017-09-20T04:32:55.327Z,137.97
2017-09-20T04:35:22.831Z,150.67
2017-09-20T04:37:50.337Z,147.37
2017-09-20T04:40:17.885Z,137.40
2017-09-20T04:42:46.186Z,129.23
2017-09-20T04:45:13.708Z,138.27
2017-09-20T04:47:41.243Z,129.27
2017-09-20T04:50:08.765Z,124.70
2017-09-20T04:52:36.330Z,133.10
2017-09-20T04:55:03.867Z,139.87
2017-09-20T04:57:31.389Z,128.07
2017-09-20T04:59:58.904Z,136.60
2017-09-20T05:02:26.445Z,125.83
2017-09-20T05:04:53.982Z,119.80
2017-09-20T05:07:22.257Z,128.80
2017-09-20T05:09:50.565Z,121.60
2017-09-20T05:12:18.077Z,125.37
2017-09-20T05:14:45.680Z,122.13
2017-09-20T05:17:13.253Z,116.20
2017-09-20T05:19:40.759Z,117.03
2017-09-20T05:22:08.285Z,120.33
2017-09-20T05:24:35.825Z,111.27
2017-09-20T05:27:03.369Z,117.10
2017-09-20T05:29:30.894Z,105.80
2017-09-20T05:31:58.450Z,116.93
2017-09-20T05:34:25.950Z,110.83
2017-09-20T05:36:53.472Z,104.57
2017-09-20T05:39:21.794Z,114.00
2017-09-20T05:41:49.318Z,110.63
2017-09-20T05:44:17.596Z,99.77
2017-09-20T05:46:45.896Z,106.23
2017-09-20T05:49:13.454Z,107.93
2017-09-20T05:51:40.977Z,99.83
2017-09-20T05:54:09.293Z,103.80
2017-09-20T05:56:36.794Z,82.83
2017-09-20T05:59:04.286Z,87.90
2017-09-20T06:01:32.584Z,99.07
2017-09-20T06:04:00.091Z,90.23
2017-09-20T06:06:27.614Z,79.20
2017-09-20T06:08:55.148Z,87.73
2017-09-20T06:11:22.652Z,79.53
2017-09-20T06:13:50.150Z,76.40
2017-09-20T06:16:18.457Z,81.90
2017-09-20T06:18:46.023Z,79.40
2017-09-20T06:21:13.519Z,79.17
2017-09-20T06:23:41.047Z,88.77
2017-09-20T06:26:08.561Z,98.80
2017-09-20T06:28:36.857Z,83.20
2017-09-20T06:31:04.392Z,78.07
2017-09-20T06:33:32.672Z,85.87
2017-09-20T06:36:00.944Z,77.23
2017-09-20T06:38:29.258Z,98.30
2017-09-20T06:40:56.764Z,87.60
2017-09-20T06:43:24.272Z,68.67
2017-09-20T06:45:51.817Z,73.57
2017-09-20T06:48:19.314Z,70.13
2017-09-20T06:50:46.829Z,76.20
2017-09-20T06:53:14.357Z,69.93
2017-09-20T06:55:41.869Z,68.50
2017-09-20T06:58:09.385Z,64.17
2017-09-20T07:00:37.683Z,65.07
2017-09-20T07:03:05.201Z,60.57
2017-09-20T07:05:32.725Z,71.00
2017-09-20T07:08:00.278Z,54.97
2017-09-20T07:10:27.778Z,55.00
2017-09-20T07:12:55.305Z,53.03
2017-09-20T07:15:22.851Z,48.87
2017-09-20T07:17:50.364Z,49.30
2017-09-20T07:20:17.881Z,56.63
2017-09-20T07:22:45.426Z,51.27
2017-09-20T07:25:12.923Z,46.43
2017-09-20T07:27:40.442Z,46.70
2017-09-20T07:30:07.988Z,50.77
2017-09-20T07:32:35.505Z,48.63
2017-09-20T07:35:03.025Z,41.57
2017-09-20T07:37:30.564Z,43.97
2017-09-20T07:39:58.072Z,35.80
2017-09-20T07:42:25.578Z,44.43
2017-09-20T07:44:53.103Z,35.70
2017-09-20T07:47:22.121Z,29.07
2017-09-20T07:49:49.619Z,35.53
2017-09-20T07:52:17.152Z,35.90
2017-09-20T07:54:44.705Z,36.70
2017-09-20T07:57:12.229Z,30.43
2017-09-20T07:59:39.769Z,29.43
2017-09-20T08:02:07.284Z,23.77
2017-09-20T08:04:34.817Z,30.63
2017-09-20T08:07:03.105Z,29.87
2017-09-20T08:09:30.641Z,39.37
2017-09-20T08:11:58.144Z,29.30
2017-09-20T08:14:25.671Z,29.70
2017-09-20T08:16:53.949Z,31.17
2017-09-20T08:19:22.232Z,26.43
2017-09-20T08:21:49.762Z,26.60
2017-09-20T08:24:17.263Z,25.90
2017-09-20T08:26:44.833Z,29.03
2017-09-20T08:29:12.367Z,36.27
2017-09-20T08:31:39.880Z,24.50
2017-09-20T08:34:07.397Z,29.43
2017-09-20T08:36:34.927Z,27.63
2017-09-20T08:39:03.199Z,27.10
2017-09-20T08:41:31.471Z,31.13
2017-09-20T08:43:59.004Z,26.30
2017-09-20T08:46:26.642Z,19.80
2017-09-20T08:48:54.139Z,18.40
2017-09-20T08:51:21.677Z,18.87
2017-09-20T08:53:49.439Z,17.40
2017-09-20T08:56:16.959Z,23.47
2017-09-20T08:58:44.475Z,16.13
2017-09-20T09:01:12.735Z,21.70
2017-09-20T09:03:40.240Z,15.83
2017-09-20T09:06:08.549Z,22.70
2017-09-20T09:08:36.056Z,21.50
2017-09-20T09:11:04.346Z,19.33
2017-09-20T09:13:32.661Z,19.90
2017-09-20T09:16:00.158Z,24.00
2017-09-20T09:18:27.676Z,24.93
2017-09-20T09:20:55.198Z,23.70
2017-09-20T09:23:23.463Z,24.43
2017-09-20T09:25:51.781Z,27.00
2017-09-20T09:28:19.316Z,25.27
2017-09-20T09:30:47.620Z,20.60
2017-09-20T09:33:15.129Z,20.27
2017-09-20T09:35:44.158Z,17.83
2017-09-20T09:38:11.668Z,26.63
2017-09-20T09:40:39.799Z,19.70
2017-09-20T09:43:07.329Z,16.87
2017-09-20T09:45:35.609Z,34.07
2017-09-20T09:48:03.866Z,14.93
2017-09-20T09:50:31.387Z,21.10
2017-09-20T09:52:58.882Z,18.50
2017-09-20T09:55:26.380Z,14.27
2017-09-20T09:57:53.943Z,26.40
2017-09-20T10:00:21.458Z,19.40
2017-09-20T10:02:48.950Z,20.83
2017-09-20T10:05:16.481Z,13.80
2017-09-20T10:07:44.742Z,10.47
2017-09-20T10:10:12.256Z,10.90
2017-09-20T10:12:39.783Z,14.43
2017-09-20T10:15:08.047Z,13.37
2017-09-20T10:17:36.326Z,13.03
2017-09-20T10:20:04.635Z,13.53
2017-09-20T10:22:32.126Z,9.67
2017-09-20T10:24:59.633Z,10.77
2017-09-20T10:27:27.173Z,14.40
2017-09-20T10:29:55.436Z,10.73
2017-09-20T10:32:22.942Z,9.27
2017-09-20T10:34:50.470Z,16.90
2017-09-20T10:37:18.736Z,14.03
2017-09-20T10:39:46.241Z,6.90
2017-09-20T10:42:13.795Z,10.30
2017-09-20T10:44:41.307Z,7.43
2017-09-20T10:47:09.593Z,10.37
2017-09-20T10:49:37.909Z,13.23
2017-09-20T10:52:05.405Z,7.33
2017-09-20T10:54:34.425Z,11.57
2017-09-20T10:57:02.707Z,9.00
2017-09-20T10:59:30.986Z,13.30
2017-09-20T11:01:59.265Z,10.60
2017-09-20T11:04:26.815Z,8.33
2017-09-20T11:06:55.104Z,11.50
2017-09-20T11:09:22.631Z,10.70
2017-09-20T11:11:51.031Z,14.77
2017-09-20T11:14:19.288Z,9.57
2017-09-20T11:16:46.787Z,13.73
2017-09-20T11:19:14.350Z,13.20
2017-09-20T11:21:41.874Z,13.50
2017-09-20T11:24:10.135Z,16.23
2017-09-20T11:26:37.861Z,14.07
2017-09-20T11:29:05.377Z,18.17
2017-09-20T11:31:33.653Z,14.20
2017-09-20T11:34:01.958Z,15.93
2017-09-20T11:36:29.470Z,15.70
2017-09-20T11:38:56.964Z,10.63
2017-09-20T11:41:24.525Z,11.10
2017-09-20T11:43:52.023Z,12.77
2017-09-20T11:46:19.527Z,14.90
2017-09-20T11:48:47.078Z,24.73
2017-09-20T11:51:15.339Z,24.40
2017-09-20T11:53:42.839Z,23.90
2017-09-20T11:56:10.359Z,28.53
2017-09-20T11:58:37.887Z,31.27
2017-09-20T12:01:05.406Z,28.50
2017-09-20T12:03:32.938Z,27.37
2017-09-20T12:06:01.207Z,36.10
2017-09-20T12:08:28.722Z,36.63
2017-09-20T12:10:56.249Z,37.40
2017-09-20T12:13:23.743Z,31.90
2017-09-20T12:15:51.258Z,34.67
2017-09-20T12:18:19.570Z,27.53
2017-09-20T12:20:47.089Z,24.43
2017-09-20T12:23:15.350Z,18.90
2017-09-20T12:25:42.896Z,21.47
2017-09-20T12:28:11.917Z,21.20
2017-09-20T12:30:40.222Z,23.03
2017-09-20T12:33:07.756Z,19.93
2017-09-20T12:35:36.027Z,23.57
2017-09-20T12:38:04.294Z,26.20
2017-09-20T12:40:32.588Z,23.27
2017-09-20T12:43:00.091Z,20.33
2017-09-20T12:45:27.615Z,23.90
2017-09-20T12:47:55.135Z,15.87
2017-09-20T12:50:22.643Z,17.53
2017-09-20T12:52:50.161Z,18.57
2017-09-20T12:55:18.479Z,20.23
2017-09-20T12:57:45.991Z,14.80
2017-09-20T13:00:13.491Z,18.33
2017-09-20T13:02:41.016Z,18.43
2017-09-20T13:05:09.287Z,17.93
2017-09-20T13:07:36.890Z,20.20
2017-09-20T13:10:04.449Z,20.33
2017-09-20T13:12:31.963Z,17.27
2017-09-20T13:15:00.246Z,16.20
2017-09-20T13:17:28.553Z,18.03
2017-09-20T13:19:56.069Z,14.40
2017-09-20T13:22:23.581Z,16.87
2017-09-20T13:24:51.112Z,17.53
2017-09-20T13:27:18.606Z,16.33
2017-09-20T13:29:46.117Z,18.23
2017-09-20T13:32:14.528Z,18.83
2017-09-20T13:34:42.088Z,19.50
2017-09-20T13:37:09.610Z,17.63
2017-09-20T13:39:37.913Z,15.20
2017-09-20T13:42:05.416Z,13.80
2017-09-20T13:44:32.912Z,19.50
2017-09-20T13:47:01.527Z,13.20
2017-09-20T13:49:29.056Z,19.23
2017-09-20T13:51:57.333Z,17.47
2017-09-20T13:54:25.639Z,17.03
2017-09-20T13:56:53.139Z,21.33
2017-09-20T13:59:20.639Z,18.30
2017-09-20T14:01:48.181Z,16.93
2017-09-20T14:04:16.466Z,15.27
2017-09-20T14:06:43.977Z,18.23
2017-09-20T14:09:12.430Z,20.93
2017-09-20T14:11:39.949Z,20.50
2017-09-20T14:14:08.216Z,25.67
2017-09-20T14:16:36.508Z,20.67
2017-09-20T14:19:04.775Z,19.33
2017-09-20T14:21:33.039Z,22.00
2017-09-20T14:24:00.581Z,21.23
2017-09-20T14:26:28.851Z,17.47
2017-09-20T14:28:56.353Z,18.97
2017-09-20T14:31:24.756Z,21.53
2017-09-20T14:33:52.254Z,17.57
2017-09-20T14:36:20.523Z,20.93
2017-09-20T14:38:48.047Z,17.50
2017-09-20T14:41:15.562Z,22.03
2017-09-20T14:43:43.880Z,24.37
2017-09-20T14:46:11.407Z,26.83
2017-09-20T14:48:39.685Z,24.70
2017-09-20T14:51:07.257Z,18.00
2017-09-20T14:53:34.808Z,20.03
2017-09-20T14:56:02.396Z,30.00
2017-09-20T14:58:29.894Z,20.90
2017-09-20T15:00:58.196Z,21.57
2017-09-20T15:03:26.454Z,16.90
2017-09-20T15:05:54.065Z,27.20
2017-09-20T15:08:21.604Z,25.03
2017-09-20T15:10:49.184Z,20.87
2017-09-20T15:13:16.724Z,21.23
2017-09-20T15:15:44.287Z,26.23
2017-09-20T15:18:11.796Z,16.20
2017-09-20T15:20:40.947Z,22.57
2017-09-20T15:23:08.476Z,27.53
2017-09-20T15:25:36.747Z,28.13
2017-09-20T15:28:04.349Z,22.20
2017-09-20T15:30:31.874Z,25.60
2017-09-20T15:33:00.154Z,20.47
2017-09-20T15:35:28.461Z,20.70
2017-09-20T15:37:55.983Z,22.17
2017-09-20T15:40:24.255Z,20.53
2017-09-20T15:42:52.534Z,21.63
2017-09-20T15:45:20.850Z,18.87
2017-09-20T15:47:48.366Z,17.43
2017-09-20T15:50:16.649Z,21.80
2017-09-20T15:52:44.952Z,24.10
2017-09-20T15:55:12.456Z,26.63
2017-09-20T15:57:41.458Z,24.60
2017-09-20T16:00:08.983Z,22.07
2017-09-20T16:02:36.501Z,20.17
2017-09-20T16:05:03.994Z,16.57
2017-09-20T16:07:31.526Z,23.03
2017-09-20T16:09:59.057Z,23.50
2017-09-20T16:12:26.580Z,21.97
2017-09-20T16:14:54.150Z,23.13
2017-09-20T16:17:21.647Z,15.03
2017-09-20T16:19:49.983Z,22.47
2017-09-20T16:22:17.515Z,19.47
2017-09-20T16:24:45.787Z,23.23
2017-09-20T16:27:14.063Z,19.87
2017-09-20T16:29:42.355Z,16.50
2017-09-20T16:32:09.929Z,22.13
2017-09-20T16:34:37.426Z,19.77
2017-09-20T16:37:04.951Z,22.70
2017-09-20T16:39:32.474Z,19.23
2017-09-20T16:42:00.762Z,20.63
2017-09-20T16:44:28.297Z,23.20
2017-09-20T16:46:56.581Z,22.10
2017-09-20T16:49:24.870Z,21.20
2017-09-20T16:51:52.418Z,22.30
2017-09-20T16:54:20.689Z,21.73
2017-09-20T16:56:48.999Z,17.00
2017-09-20T16:59:16.549Z,19.90
2017-09-20T17:01:44.051Z,26.60
2017-09-20T17:04:11.561Z,18.20
2017-09-20T17:06:39.137Z,15.77
2017-09-20T17:09:06.654Z,20.90
2017-09-20T17:11:34.923Z,23.90
2017-09-20T17:14:02.471Z,20.60
2017-09-20T17:16:30.807Z,17.47
2017-09-20T17:18:58.325Z,20.90
2017-09-20T17:21:26.649Z,18.73
2017-09-20T17:23:54.161Z,24.43
2017-09-20T17:26:22.441Z,24.07
2017-09-20T17:28:50.745Z,21.57
2017-09-20T17:31:18.247Z,23.37
2017-09-20T17:33:45.765Z,17.37
2017-09-20T17:36:13.290Z,16.40
2017-09-20T17:38:41.559Z,23.23
2017-09-20T17:41:09.166Z,20.93
2017-09-20T17:43:36.690Z,23.63
2017-09-20T17:46:04.955Z,24.30
2017-09-20T17:48:33.225Z,18.10
2017-09-20T17:51:00.777Z,20.13
2017-09-20T17:53:29.126Z,22.50
2017-09-20T17:55:56.627Z,21.37
2017-09-20T17:58:24.923Z,24.73
2017-09-20T18:00:52.510Z,24.07
2017-09-20T18:03:20.029Z,27.97
2017-09-20T18:05:48.334Z,20.20
2017-09-20T18:08:15.837Z,51.00
2017-09-20T18:10:43.349Z,35.43
2017-09-20T18:13:10.880Z,35.90
2017-09-20T18:15:39.174Z,42.63
2017-09-20T18:18:06.666Z,36.80
2017-09-20T18:20:34.310Z,27.50
2017-09-20T18:23:01.820Z,31.77
2017-09-20T18:25:29.335Z,32.07
2017-09-20T18:27:56.876Z,33.23
2017-09-20T18:30:24.378Z,28.47
2017-09-20T18:32:51.899Z,26.87
2017-09-20T18:35:19.469Z,28.70
2017-09-20T18:37:46.985Z,35.20
2017-09-20T18:40:15.265Z,31.23
2017-09-20T18:42:43.574Z,31.60
2017-09-20T18:45:11.098Z,30.13
2017-09-20T18:47:39.414Z,30.50
2017-09-20T18:50:07.057Z,36.93
2017-09-20T18:52:34.633Z,36.13
2017-09-20T18:55:02.398Z,32.30
2017-09-20T18:57:30.034Z,38.67
2017-09-20T18:59:57.607Z,33.90
2017-09-20T19:02:25.272Z,32.97
2017-09-20T19:04:53.702Z,37.60
2017-09-20T19:07:22.211Z,33.93
2017-09-20T19:09:49.881Z,37.77
2017-09-20T19:12:17.398Z,31.97
2017-09-20T19:14:45.002Z,33.40
2017-09-20T19:17:12.516Z,35.43
2017-09-20T19:19:40.442Z,40.80
2017-09-20T19:22:08.202Z,33.37
2017-09-20T19:24:35.769Z,38.73
2017-09-20T19:27:03.423Z,32.43
2017-09-20T19:29:30.967Z,29.90
2017-09-20T19:31:58.476Z,21.00
2017-09-20T19:34:26.774Z,24.63
2017-09-20T19:36:55.078Z,27.20
2017-09-20T19:39:22.615Z,23.30
2017-09-20T19:41:50.933Z,22.77
2017-09-20T19:44:18.456Z,23.73
2017-09-20T19:46:46.725Z,24.03
2017-09-20T19:49:15.023Z,28.23
2017-09-20T19:51:42.551Z,23.00
2017-09-20T19:54:10.837Z,25.07
2017-09-20T19:56:39.133Z,29.10
2017-09-20T19:59:06.647Z,41.90
2017-09-20T20:01:34.269Z,25.77
2017-09-20T20:04:01.809Z,25.77
2017-09-20T20:06:29.337Z,31.87
2017-09-20T20:08:56.930Z,25.03
2017-09-20T20:11:24.470Z,25.20
2017-09-20T20:13:52.017Z,27.07
2017-09-20T20:16:20.349Z,28.50
2017-09-20T20:18:47.863Z,28.27
2017-09-20T20:21:16.145Z,24.97
2017-09-20T20:23:43.701Z,26.60
2017-09-20T20:26:11.994Z,27.90
2017-09-20T20:28:39.507Z,27.93
2017-09-20T20:31:07.063Z,24.63
2017-09-20T20:33:34.613Z,28.70
2017-09-20T20:36:02.146Z,33.87
2017-09-20T20:38:29.707Z,24.33
2017-09-20T20:40:57.298Z,30.57
2017-09-20T20:43:24.822Z,32.47
2017-09-20T20:45:52.351Z,38.73
2017-09-20T20:48:19.997Z,25.93
2017-09-20T20:50:47.723Z,29.10
2017-09-20T20:53:15.515Z,32.60
2017-09-20T20:55:43.385Z,27.80
2017-09-20T20:58:11.101Z,34.50
2017-09-20T21:00:38.969Z,25.67
2017-09-20T21:03:06.494Z,30.70
2017-09-20T21:05:34.906Z,27.00
2017-09-20T21:08:02.775Z,31.30
2017-09-20T21:10:31.301Z,25.40
2017-09-20T21:12:58.913Z,23.60
2017-09-20T21:15:26.441Z,24.67
2017-09-20T21:17:53.991Z,26.37
2017-09-20T21:20:22.284Z,25.07
2017-09-20T21:22:49.795Z,26.40
2017-09-20T21:25:17.683Z,38.10
2017-09-20T21:27:45.349Z,31.40
2017-09-20T21:30:13.727Z,30.93
2017-09-20T21:32:42.239Z,28.70
2017-09-20T21:35:10.841Z,30.63
2017-09-20T21:37:38.762Z,25.67
2017-09-20T21:40:06.489Z,29.20
2017-09-20T21:42:34.295Z,32.93
2017-09-20T21:45:02.621Z,28.70
2017-09-20T21:47:30.133Z,27.30
2017-09-20T21:49:58.433Z,25.70
2017-09-20T21:52:25.930Z,27.67
2017-09-20T21:54:53.441Z,25.27
2017-09-20T21:57:20.973Z,28.57
2017-09-20T21:59:49.253Z,28.87
2017-09-20T22:02:17.529Z,35.17
2017-09-20T22:04:45.815Z,29.93
2017-09-20T22:07:14.097Z,36.87
2017-09-20T22:09:42.350Z,29.97
2017-09-20T22:12:09.879Z,34.07
2017-09-20T22:14:37.394Z,30.50
2017-09-20T22:17:16.797Z,33.63
2017-09-20T22:19:56.233Z,34.27
2017-09-20T22:22:35.753Z,30.33
2017-09-20T22:25:15.167Z,26.03
2017-09-20T22:27:42.709Z,26.40
2017-09-20T22:30:10.225Z,27.60
2017-09-20T22:32:37.722Z,25.40
2017-09-20T22:35:05.262Z,27.97
2017-09-20T22:37:33.540Z,28.23
2017-09-20T22:40:01.816Z,29.97
2017-09-20T22:42:30.107Z,26.70
2017-09-20T22:44:57.604Z,30.80
2017-09-20T22:47:25.103Z,28.73
2017-09-20T22:49:53.409Z,29.90
2017-09-20T22:52:20.913Z,30.97
2017-09-20T22:54:48.406Z,31.07
2017-09-20T22:57:16.799Z,32.13
2017-09-20T22:59:44.300Z,32.53
2017-09-20T23:02:11.815Z,32.10
2017-09-20T23:04:39.343Z,35.57
2017-09-20T23:07:06.856Z,32.70
2017-09-20T23:09:34.350Z,31.67
2017-09-20T23:12:01.867Z,33.03
2017-09-20T23:14:29.389Z,26.67
2017-09-20T23:16:57.676Z,28.73
2017-09-20T23:19:25.199Z,32.27
2017-09-20T23:21:52.713Z,32.00
2017-09-20T23:24:20.234Z,38.57
2017-09-20T23:26:48.495Z,38.23
2017-09-20T23:29:15.991Z,35.63
2017-09-20T23:31:43.535Z,39.30
2017-09-20T23:34:11.057Z,30.97
2017-09-20T23:36:38.569Z,39.47
2017-09-20T23:39:06.109Z,34.53
2017-09-20T23:41:34.366Z,35.17
2017-09-20T23:44:01.977Z,34.43
2017-09-20T23:46:29.517Z,38.17
2017-09-20T23:48:57.021Z,39.90
2017-09-20T23:51:24.519Z,39.43
2017-09-20T23:53:52.826Z,33.70
2017-09-20T23:56:20.386Z,40.37
2017-09-20T23:58:47.901Z,43.53
